Time;durP1;ratioP1;P1;durP2;ratioP2;P2;SDS_P1;SDS_P2;PMS_P1;PMS_P2;Temp;Humidity;BMP_temperature;BMP_pressure;BME280_temperature;BME280_humidity;BME280_pressure;Samples;Min_cycle;Max_cycle;Signal;HPM_P1;HPM_P2
2021/09/06 00:01:49;;;;;;;9.07;8.17;;;;;;;12.68;75.93;100141.97;5014602;28;20235;-81
2021/09/06 00:04:21;;;;;;;8.83;7.90;;;;;;;12.67;76.15;100153.75;5068455;23;20229;-80
2021/09/06 00:06:49;;;;;;;9.57;8.53;;;;;;;12.66;76.47;100144.88;5152356;22;1137189;-80
2021/09/06 00:09:50;;;;;;;9.87;8.87;;;;;;;12.66;76.54;100149.41;5095455;28;20192;-80
2021/09/06 00:12:19;;;;;;;9.93;8.93;;;;;;;12.48;77.21;100133.25;5105157;23;20271;-80
2021/09/06 00:14:48;;;;;;;9.00;8.10;;;;;;;12.49;77.55;100145.66;5078986;22;20214;-80
2021/09/06 00:17:23;;;;;;;9.83;8.47;;;;;;;12.51;77.13;100149.75;5044449;28;20217;-81
2021/09/06 00:19:50;;;;;;;10.63;9.33;;;;;;;12.40;77.23;100144.28;5076056;23;20243;-80
2021/09/06 00:22:21;;;;;;;11.57;9.67;;;;;;;12.30;77.37;100121.41;5081369;22;20247;-80
2021/09/06 00:25:10;;;;;;;10.30;9.30;;;;;;;12.40;77.49;100146.97;5066345;28;20189;-80
2021/09/06 00:27:41;;;;;;;10.70;9.60;;;;;;;12.33;77.66;100147.00;5061688;22;21338;-80
2021/09/06 00:30:15;;;;;;;13.77;9.70;;;;;;;12.30;77.79;100150.97;5072740;28;20255;-80
2021/09/06 00:32:49;;;;;;;12.37;10.30;;;;;;;12.25;77.87;100155.34;5079329;22;20308;-81
2021/09/06 00:35:15;;;;;;;12.50;10.50;;;;;;;12.24;77.90;100162.56;5065864;23;20248;-80
2021/09/06 00:38:08;;;;;;;11.87;10.47;;;;;;;12.17;77.82;100151.06;5078748;28;20215;-80
2021/09/06 00:40:38;;;;;;;12.37;10.57;;;;;;;12.19;77.88;100156.19;5082215;23;20255;-80
2021/09/06 00:43:07;;;;;;;12.80;11.43;;;;;;;12.14;77.59;100156.84;5061559;28;20231;-80
2021/09/06 00:45:40;;;;;;;12.37;10.63;;;;;;;12.20;77.51;100155.16;5083605;23;20232;-80
2021/09/06 00:48:19;;;;;;;15.17;11.53;;;;;;;12.18;77.62;100157.22;5099204;22;20299;-80
2021/09/06 00:51:00;;;;;;;12.07;10.70;;;;;;;12.14;77.73;100151.47;5075066;23;20696;-80
2021/09/06 00:53:47;;;;;;;12.63;10.87;;;;;;;12.13;77.79;100149.03;5088947;22;20224;-80
2021/09/06 00:56:15;;;;;;;12.53;11.23;;;;;;;12.06;77.90;100151.75;5075563;28;20161;-80
2021/09/06 00:59:07;;;;;;;11.37;10.23;;;;;;;12.01;78.09;100146.19;5099303;22;20217;-80
2021/09/06 01:02:04;;;;;;;11.90;10.63;;;;;;;12.03;78.32;100143.31;5092920;28;20221;-80
2021/09/06 01:05:07;;;;;;;11.43;10.27;;;;;;;11.99;78.37;100140.19;5077740;28;20224;-80
2021/09/06 01:07:57;;;;;;;11.97;10.73;;;;;;;11.94;78.61;100137.38;5098251;22;20226;-80
2021/09/06 01:10:49;;;;;;;12.10;10.37;;;;;;;11.96;78.37;100140.66;5086021;22;20235;-80
2021/09/06 01:13:48;;;;;;;12.03;10.60;;;;;;;11.94;77.98;100141.91;5087828;22;20217;-80
2021/09/06 01:16:25;;;;;;;12.90;10.80;;;;;;;11.87;78.39;100140.09;5075285;28;20209;-79
2021/09/06 01:18:53;;;;;;;11.80;10.60;;;;;;;11.81;78.52;100140.94;5097875;22;20220;-80
2021/09/06 01:21:22;;;;;;;12.27;10.97;;;;;;;11.67;78.49;100130.44;5078371;28;20235;-79
2021/09/06 01:24:09;;;;;;;12.03;10.90;;;;;;;11.70;78.89;100136.22;5088218;23;20263;-80
2021/09/06 01:27:09;;;;;;;11.93;10.73;;;;;;;11.73;78.83;100146.56;5088180;22;20255;-80
2021/09/06 01:29:43;;;;;;;12.70;11.27;;;;;;;11.64;79.74;100152.34;5099759;22;20230;-80
2021/09/06 01:32:19;;;;;;;13.43;12.03;;;;;;;11.57;79.46;100154.25;5092507;23;20236;-80
2021/09/06 01:34:53;;;;;;;12.47;11.00;;;;;;;11.59;79.78;100157.53;5072578;23;20236;-80
2021/09/06 01:37:21;;;;;;;13.33;11.37;;;;;;;11.54;79.80;100158.19;5069445;22;20208;-80
2021/09/06 01:39:55;;;;;;;13.37;11.30;;;;;;;11.49;80.12;100149.94;5057199;23;20230;-80
2021/09/06 01:42:29;;;;;;;12.27;10.97;;;;;;;11.47;79.89;100152.84;5074286;28;20241;-80
2021/09/06 01:45:36;;;;;;;12.73;11.43;;;;;;;11.52;79.96;100160.28;5120145;22;20208;-80
2021/09/06 01:48:05;;;;;;;12.87;11.53;;;;;;;11.49;79.74;100156.13;5061768;28;20217;-79
2021/09/06 01:51:00;;;;;;;13.70;11.67;;;;;;;11.43;80.00;100156.97;5101759;22;20215;-80
2021/09/06 01:53:48;;;;;;;14.33;11.87;;;;;;;11.44;79.94;100155.94;5074608;23;20252;-80
2021/09/06 01:56:31;;;;;;;12.57;11.27;;;;;;;11.37;79.97;100154.34;5075310;22;20247;-80
2021/09/06 01:59:09;;;;;;;14.03;11.83;;;;;;;11.38;79.85;100161.34;5078791;28;20239;-80
2021/09/06 02:02:08;;;;;;;13.00;11.40;;;;;;;11.32;80.08;100163.00;5100724;22;20252;-80
2021/09/06 02:04:48;;;;;;;13.43;11.60;;;;;;;11.32;79.92;100167.56;5063092;28;20243;-80
2021/09/06 02:07:16;;;;;;;12.23;10.97;;;;;;;11.30;79.89;100164.25;5067796;23;20263;-80
2021/09/06 02:10:06;;;;;;;13.77;11.67;;;;;;;11.26;80.02;100171.91;5101294;23;20197;-80
2021/09/06 02:13:09;;;;;;;12.47;11.00;;;;;;;11.16;79.71;100163.47;5082481;28;20228;-80
2021/09/06 02:15:43;;;;;;;13.07;11.67;;;;;;;11.19;80.18;100173.78;5102755;22;20245;-80
2021/09/06 02:18:23;;;;;;;12.13;10.73;;;;;;;11.11;80.14;100165.13;5045805;28;20194;-80
2021/09/06 02:21:05;;;;;;;13.27;11.87;;;;;;;11.15;80.17;100177.91;5092781;23;20257;-79
2021/09/06 02:23:44;;;;;;;12.83;11.43;;;;;;;11.15;79.82;100179.78;5070374;23;20571;-80
2021/09/06 02:26:18;;;;;;;12.33;11.13;;;;;;;11.00;79.86;100161.25;5061956;28;20254;-80
2021/09/06 02:29:15;;;;;;;13.03;11.73;;;;;;;11.00;80.39;100174.66;5024318;28;20226;-79
2021/09/06 02:32:09;;;;;;;12.63;11.30;;;;;;;11.02;80.24;100173.41;5095000;22;20233;-79
2021/09/06 02:35:08;;;;;;;12.87;11.57;;;;;;;10.93;80.55;100166.59;5091009;28;20220;-80
2021/09/06 02:37:56;;;;;;;13.30;11.90;;;;;;;10.83;80.57;100155.47;5083472;23;20224;-79
2021/09/06 02:40:40;;;;;;;12.70;11.40;;;;;;;10.89;80.65;100173.44;5095204;28;20228;-80
2021/09/06 02:43:14;;;;;;;13.47;12.07;;;;;;;10.93;80.54;100176.50;5097381;23;20228;-80
2021/09/06 02:45:51;;;;;;;12.70;11.40;;;;;;;10.88;80.70;100179.81;5077440;28;20220;-79
2021/09/06 02:48:33;;;;;;;13.50;12.10;;;;;;;10.86;81.05;100173.84;5107940;22;20252;-80
2021/09/06 02:51:12;;;;;;;12.43;11.13;;;;;;;10.87;81.12;100175.47;5085428;23;20237;-80
2021/09/06 02:54:02;;;;;;;14.53;11.83;;;;;;;10.83;81.11;100176.09;5072068;23;20223;-81
2021/09/06 02:57:08;;;;;;;13.60;11.97;;;;;;;10.81;81.18;100164.78;5095302;28;20163;-80
2021/09/06 02:59:56;;;;;;;13.03;11.67;;;;;;;10.78;81.27;100170.56;5093492;28;20220;-79
2021/09/06 03:02:23;;;;;;;15.07;12.10;;;;;;;10.65;81.14;100144.56;5060396;28;20197;-80
2021/09/06 03:04:56;;;;;;;13.90;12.43;;;;;;;10.75;81.15;100169.09;5084631;23;20224;-80
2021/09/06 03:07:36;;;;;;;13.37;12.07;;;;;;;10.70;81.32;100160.88;5093513;23;20232;-80
2021/09/06 03:10:14;;;;;;;14.13;12.00;;;;;;;10.48;81.12;100130.78;5070785;23;20216;-80
2021/09/06 03:12:43;;;;;;;15.00;12.20;;;;;;;10.69;81.18;100164.56;5098536;23;20288;-80
2021/09/06 03:15:31;;;;;;;13.77;12.37;;;;;;;10.64;81.53;100168.94;5089910;23;20301;-80
2021/09/06 03:18:53;;;;;;;13.60;12.20;;;;;;;10.63;81.47;100167.28;5166317;23;20233;-79
2021/09/06 03:21:40;;;;;;;15.47;12.57;;;;;;;10.51;81.55;100157.16;5067088;23;20315;-79
2021/09/06 03:24:13;;;;;;;13.70;12.30;;;;;;;10.44;81.39;100147.50;5096790;28;20227;-80
2021/09/06 03:30:12;;;;;;;14.13;12.60;;;;;;;10.43;81.24;100159.22;5073028;23;20236;-80
2021/09/06 03:32:47;;;;;;;14.07;12.23;;;;;;;10.48;81.07;100167.47;5092108;23;20211;-80
2021/09/06 03:35:27;;;;;;;14.20;12.70;;;;;;;10.40;81.46;100157.78;5083229;22;20221;-80
2021/09/06 03:37:58;;;;;;;13.90;12.43;;;;;;;10.40;81.67;100160.47;5082678;23;20263;-81
2021/09/06 03:40:26;;;;;;;14.40;12.90;;;;;;;10.33;81.73;100165.00;5047615;23;20229;-80
2021/09/06 03:42:53;;;;;;;14.93;13.33;;;;;;;10.31;81.80;100155.53;5039413;23;20231;-80
2021/09/06 03:45:31;;;;;;;15.50;13.47;;;;;;;10.24;81.81;100149.31;5050023;23;20240;-80
2021/09/06 03:48:10;;;;;;;14.60;13.13;;;;;;;10.30;81.89;100165.41;5083169;23;20232;-80
2021/09/06 03:50:58;;;;;;;16.07;13.17;;;;;;;10.26;82.11;100164.16;5183468;23;20293;-80
2021/09/06 03:54:15;;;;;;;14.27;12.37;;;;;;;10.23;81.95;100164.56;5079253;23;20214;-80
2021/09/06 03:56:42;;;;;;;14.87;13.27;;;;;;;10.14;82.06;100157.72;5122085;23;20231;-80
2021/09/06 03:59:39;;;;;;;13.80;12.40;;;;;;;10.18;82.01;100164.34;5077030;28;20196;-80
2021/09/06 04:02:37;;;;;;;13.93;12.43;;;;;;;10.14;81.89;100165.75;5081064;23;20534;-80
2021/09/06 04:05:20;;;;;;;15.17;12.80;;;;;;;10.16;81.85;100177.13;5104098;22;20246;-79
2021/09/06 04:08:11;;;;;;;15.23;13.63;;;;;;;10.14;81.92;100179.13;5061874;22;20208;-80
2021/09/06 04:10:48;;;;;;;15.03;13.43;;;;;;;10.04;81.74;100166.16;5061926;28;20192;-79
2021/09/06 04:13:27;;;;;;;14.53;13.00;;;;;;;10.13;82.13;100185.50;5084179;23;20275;-80
2021/09/06 04:16:08;;;;;;;14.90;13.30;;;;;;;10.06;81.92;100174.81;5059343;28;20173;-79
2021/09/06 04:18:56;;;;;;;15.17;13.57;;;;;;;10.04;81.91;100178.69;5060360;28;20166;-82
2021/09/06 04:21:46;;;;;;;14.70;13.10;;;;;;;10.06;81.97;100179.34;5103180;22;20229;-80
2021/09/06 04:24:34;;;;;;;17.13;13.10;;;;;;;10.06;81.87;100182.84;5066681;23;20225;-79
2021/09/06 04:28:02;;;;;;;19.63;13.07;;;;;;;10.14;82.03;100187.16;5107859;22;20227;-80
2021/09/06 04:30:51;;;;;;;17.30;12.90;;;;;;;10.02;81.96;100170.91;5100580;22;20263;-80
2021/09/06 04:33:34;;;;;;;14.87;12.90;;;;;;;10.13;82.03;100189.03;5062696;28;20204;-79
2021/09/06 04:36:04;;;;;;;14.67;13.07;;;;;;;10.20;81.79;100190.94;5081437;23;20638;-79
2021/09/06 04:39:02;;;;;;;15.87;13.00;;;;;;;10.25;81.72;100196.50;5069725;23;20239;-79
2021/09/06 04:41:57;;;;;;;14.43;12.93;;;;;;;10.23;81.83;100193.19;5094728;28;20288;-80
2021/09/06 04:44:26;;;;;;;13.10;11.80;;;;;;;10.22;81.78;100189.69;5090213;23;20243;-80
2021/09/06 04:47:12;;;;;;;15.03;12.93;;;;;;;10.31;81.85;100195.69;5159599;23;20254;-80
2021/09/06 04:50:19;;;;;;;14.23;12.77;;;;;;;10.36;81.83;100195.91;5075241;23;20225;31
2021/09/06 04:53:15;;;;;;;13.70;12.30;;;;;;;10.53;81.52;100197.97;5051403;28;20210;-81
2021/09/06 04:56:04;;;;;;;14.70;13.20;;;;;;;10.66;81.33;100205.19;5057137;23;20290;-82
2021/09/06 04:58:51;;;;;;;13.57;12.17;;;;;;;10.82;81.17;100206.63;5073737;23;20214;-81
2021/09/06 05:01:55;;;;;;;14.73;12.87;;;;;;;10.86;80.52;100200.66;5073342;28;20222;-82
2021/09/06 05:05:22;;;;;;;13.80;12.33;;;;;;;11.06;80.48;100210.53;5050868;28;20249;-82
2021/09/06 05:07:57;;;;;;;14.97;12.97;;;;;;;11.16;80.13;100208.22;5083971;22;20228;-81
2021/09/06 05:11:09;;;;;;;13.83;12.43;;;;;;;11.36;80.21;100212.53;5088325;23;20232;-82
2021/09/06 05:13:39;;;;;;;13.73;12.33;;;;;;;11.49;80.00;100211.66;5051187;22;20223;-79
2021/09/06 05:16:11;;;;;;;13.53;11.67;;;;;;;11.59;79.53;100206.66;5048456;23;20220;-80
2021/09/06 05:19:01;;;;;;;13.67;12.27;;;;;;;11.76;79.39;100223.13;5079849;28;20286;-80
2021/09/06 05:21:45;;;;;;;13.37;11.87;;;;;;;11.89;78.83;100213.19;5086953;23;20213;-80
2021/09/06 05:24:34;;;;;;;13.73;12.33;;;;;;;12.02;78.70;100211.47;5056097;23;20253;-79
2021/09/06 05:27:17;;;;;;;14.50;12.40;;;;;;;12.22;78.27;100213.03;5056021;28;20218;-79
2021/09/06 05:30:25;;;;;;;13.60;11.23;;;;;;;12.49;77.39;100228.97;5079941;22;20279;-79
2021/09/06 05:33:27;;;;;;;14.40;12.10;;;;;;;12.68;76.94;100231.50;5117984;22;20244;-80
2021/09/06 05:35:54;;;;;;;16.00;12.87;;;;;;;12.84;76.48;100235.50;5084926;23;20216;-80
2021/09/06 05:38:33;;;;;;;12.83;11.53;;;;;;;12.94;76.19;100221.56;5095286;28;20672;-80
2021/09/06 05:41:36;;;;;;;13.17;11.70;;;;;;;13.19;75.81;100238.53;5174177;23;20236;-79
2021/09/06 05:44:32;;;;;;;13.40;12.10;;;;;;;13.44;75.35;100246.56;5092693;28;20256;-80
2021/09/06 05:47:03;;;;;;;13.40;11.97;;;;;;;13.51;74.39;100232.00;5093271;28;20224;-79
2021/09/06 05:49:51;;;;;;;13.33;11.93;;;;;;;13.65;73.95;100229.97;5100308;22;20247;-80
2021/09/06 05:52:39;;;;;;;13.00;11.67;;;;;;;13.92;73.74;100243.94;5101022;22;20295;-79
2021/09/06 05:55:39;;;;;;;13.43;11.63;;;;;;;14.06;72.90;100242.72;5076424;23;20210;-80
2021/09/06 05:58:41;;;;;;;13.30;10.87;;;;;;;14.22;71.79;100241.28;5047996;28;20242;-79
2021/09/06 06:01:21;;;;;;;12.03;10.93;;;;;;;14.37;71.81;100242.50;5053426;28;20566;-80
2021/09/06 06:03:54;;;;;;;12.53;11.27;;;;;;;14.50;70.22;100238.81;5052870;28;20236;-80
2021/09/06 06:06:38;;;;;;;12.47;11.17;;;;;;;14.54;70.40;100238.13;5051022;28;20221;-80
2021/09/06 06:09:25;;;;;;;12.47;11.20;;;;;;;14.63;69.32;100240.50;5066711;23;20232;-80
2021/09/06 06:11:54;;;;;;;12.17;10.93;;;;;;;14.69;69.15;100243.09;5071900;28;20309;-80
2021/09/06 06:14:30;;;;;;;13.90;11.33;;;;;;;14.77;69.48;100248.16;5076284;23;20559;-80
2021/09/06 06:17:08;;;;;;;12.87;11.67;;;;;;;14.86;69.35;100251.31;5097395;23;20226;-80
2021/09/06 06:19:57;;;;;;;12.63;11.13;;;;;;;14.91;69.41;100249.56;5181075;23;20241;-81
2021/09/06 06:23:10;;;;;;;12.40;11.10;;;;;;;14.95;69.40;100242.66;5081087;28;20225;-80
2021/09/06 06:26:11;;;;;;;12.33;11.13;;;;;;;14.88;69.56;100252.72;5064920;23;20206;-79
2021/09/06 06:29:04;;;;;;;13.90;10.67;;;;;;;14.83;69.70;100232.91;5056285;28;20265;-80
2021/09/06 06:31:48;;;;;;;12.50;11.20;;;;;;;15.08;67.99;100241.59;5053025;28;20229;-79
2021/09/06 06:34:32;;;;;;;14.83;11.80;;;;;;;15.24;68.05;100245.50;5090946;23;20247;-91
2021/09/06 06:36:59;;;;;;;12.60;11.27;;;;;;;15.36;67.99;100241.72;5081672;28;20212;-88
2021/09/06 06:39:31;;;;;;;14.30;11.30;;;;;;;15.54;67.44;100257.00;5076459;28;20243;-84
2021/09/06 06:41:58;;;;;;;13.47;11.57;;;;;;;15.67;68.10;100267.56;5057212;28;20225;-85
2021/09/06 06:44:28;;;;;;;13.07;11.27;;;;;;;15.70;67.65;100258.97;5057190;28;20527;-88
2021/09/06 06:46:59;;;;;;;12.60;11.30;;;;;;;16.02;66.88;100261.25;5071170;28;20229;-92
2021/09/06 06:49:26;;;;;;;12.07;10.87;;;;;;;16.11;66.44;100249.81;5056964;28;20231;-90
2021/09/06 06:51:53;;;;;;;11.83;10.00;;;;;;;16.29;65.19;100251.50;5057718;28;20223;-89
2021/09/06 06:54:21;;;;;;;12.03;10.00;;;;;;;16.45;64.95;100264.25;5054350;28;20289;-90
2021/09/06 06:56:48;;;;;;;14.73;11.50;;;;;;;16.58;64.78;100260.44;5074464;28;20227;-93
2021/09/06 06:59:16;;;;;;;11.90;10.47;;;;;;;16.77;64.48;100261.06;5058736;28;20227;-93
2021/09/06 07:01:43;;;;;;;11.13;10.00;;;;;;;16.85;63.86;100255.22;5058631;28;20532;-92
2021/09/06 07:04:11;;;;;;;12.07;10.83;;;;;;;16.86;63.66;100265.81;5057864;28;20237;-87
2021/09/06 07:06:41;;;;;;;12.00;10.80;;;;;;;16.98;63.13;100265.75;5043419;28;20228;-92
2021/09/06 07:09:08;;;;;;;11.90;10.70;;;;;;;17.01;62.09;100271.50;5058500;28;20641;-91
2021/09/06 07:11:35;;;;;;;12.23;10.73;;;;;;;17.00;61.74;100266.31;5042142;28;20235;-92
2021/09/06 07:14:02;;;;;;;14.83;10.33;;;;;;;17.17;61.65;100270.66;5058228;28;20578;-91
2021/09/06 07:16:29;;;;;;;11.57;9.80;;;;;;;17.26;61.04;100260.25;5055237;28;20308;-90
2021/09/06 07:18:57;;;;;;;12.30;10.80;;;;;;;17.29;60.54;100275.16;5091471;28;20372;-94
2021/09/06 07:21:24;;;;;;;12.47;10.40;;;;;;;17.36;59.48;100276.63;5074554;28;20315;-93
2021/09/06 07:23:52;;;;;;;13.00;9.80;;;;;;;17.32;60.67;100277.38;5042064;28;20534;-91
2021/09/06 07:26:19;;;;;;;11.33;10.20;;;;;;;17.68;60.54;100286.88;5073800;28;20224;-85
2021/09/06 07:28:49;;;;;;;11.60;10.27;;;;;;;17.29;60.01;100278.69;5058728;28;20227;-90
2021/09/06 07:31:16;;;;;;;13.30;10.80;;;;;;;17.67;60.03;100285.22;5058007;28;20573;-85
2021/09/06 07:33:43;;;;;;;13.03;10.30;;;;;;;17.77;59.37;100275.34;5061307;28;20691;-86
2021/09/06 07:36:10;;;;;;;11.50;10.30;;;;;;;17.80;59.34;100284.88;5044496;28;20231;-95
2021/09/06 07:38:38;;;;;;;14.53;10.53;;;;;;;17.81;59.53;100281.91;5044849;28;20220;-88
2021/09/06 07:41:05;;;;;;;11.17;9.87;;;;;;;17.77;59.33;100278.06;5059501;28;20567;-92
2021/09/06 07:43:33;;;;;;;11.73;10.43;;;;;;;18.06;58.53;100288.75;5041414;28;20252;-89
2021/09/06 07:46:00;;;;;;;12.87;10.23;;;;;;;18.11;58.51;100283.34;5072347;28;20639;-90
2021/09/06 07:48:27;;;;;;;11.40;10.20;;;;;;;18.25;57.89;100285.41;5055707;28;20282;-90
2021/09/06 07:50:56;;;;;;;15.53;10.53;;;;;;;18.21;57.86;100280.75;5057150;28;20312;-92
2021/09/06 07:53:23;;;;;;;11.67;10.47;;;;;;;18.04;58.05;100275.41;5057447;28;20233;-92
2021/09/06 07:55:51;;;;;;;12.00;10.80;;;;;;;18.31;58.47;100273.56;5081609;28;20239;-94
2021/09/06 07:58:22;;;;;;;13.73;10.17;;;;;;;18.47;57.46;100271.84;5060861;28;20228;-93
2021/09/06 08:00:49;;;;;;;11.43;10.23;;;;;;;18.16;57.23;100281.53;5044114;28;20227;-92
2021/09/06 08:03:16;;;;;;;10.77;9.53;;;;;;;18.38;57.65;100274.16;5059797;28;20251;-93
2021/09/06 08:05:43;;;;;;;10.43;9.13;;;;;;;18.64;56.50;100279.91;5060347;28;20228;-91
2021/09/06 08:08:14;;;;;;;12.43;10.00;;;;;;;18.92;55.95;100276.91;5059809;28;20319;-84
2021/09/06 08:10:42;;;;;;;11.13;9.90;;;;;;;19.00;55.56;100284.56;5060599;28;20322;-91
2021/09/06 08:13:14;;;;;;;12.57;9.00;;;;;;;18.97;54.92;100287.81;5060916;28;20224;-86
2021/09/06 08:15:42;;;;;;;11.00;8.90;;;;;;;19.08;55.01;100281.41;5060644;28;20235;-87
2021/09/06 08:18:10;;;;;;;12.87;9.73;;;;;;;19.00;55.40;100287.28;5092709;28;20242;-87
2021/09/06 08:20:44;;;;;;;11.27;8.37;;;;;;;19.22;54.27;100279.84;5061292;28;20243;-87
2021/09/06 08:23:11;;;;;;;10.27;8.27;;;;;;;19.20;54.56;100298.31;5060441;28;20228;-87
2021/09/06 08:25:39;;;;;;;14.20;9.03;;;;;;;19.46;53.94;100293.09;5060438;28;20512;-90
2021/09/06 08:28:07;;;;;;;11.10;8.03;;;;;;;19.65;51.74;100295.13;5059216;28;20220;-90
2021/09/06 08:30:36;;;;;;;10.07;7.67;;;;;;;19.60;52.21;100299.69;5080408;28;20303;-89
2021/09/06 08:33:03;;;;;;;9.53;8.33;;;;;;;19.91;52.47;100301.53;5091989;28;20232;-83
2021/09/06 08:35:31;;;;;;;9.97;8.20;;;;;;;19.92;51.54;100296.91;5061055;28;20229;-88
2021/09/06 08:37:59;;;;;;;10.03;8.00;;;;;;;20.07;51.33;100302.41;5077760;28;20432;-90
2021/09/06 08:40:26;;;;;;;9.53;7.23;;;;;;;19.85;51.56;100301.75;5043719;28;20603;-92
2021/09/06 08:42:54;;;;;;;9.20;7.83;;;;;;;19.81;51.55;100301.47;5077451;28;20230;-86
2021/09/06 08:45:21;;;;;;;8.73;7.73;;;;;;;19.86;51.48;100297.97;5060689;28;20319;-91
2021/09/06 08:47:49;;;;;;;8.90;7.70;;;;;;;20.03;51.87;100307.56;5044006;28;20315;-91
2021/09/06 08:50:19;;;;;;;10.70;8.17;;;;;;;19.79;51.69;100304.44;5043742;28;20220;-84
2021/09/06 08:52:46;;;;;;;8.63;7.73;;;;;;;20.11;52.08;100306.25;5044006;28;20467;-91
2021/09/06 08:55:13;;;;;;;8.60;7.17;;;;;;;20.22;51.72;100297.03;5060201;28;20225;-91
2021/09/06 08:57:43;;;;;;;9.07;7.30;;;;;;;20.21;51.37;100312.53;5044123;28;20661;-85
2021/09/06 09:00:11;;;;;;;10.20;7.10;;;;;;;20.51;50.95;100303.69;5043172;28;20306;-89
2021/09/06 09:02:53;;;;;;;9.90;7.50;;;;;;;20.81;50.47;100302.91;5062655;28;20534;-91
2021/09/06 09:06:19;;;;;;;8.77;7.30;;;;;;;20.97;48.78;100303.75;5058972;28;20229;-92
2021/09/06 09:09:06;;;;;;;9.17;7.17;;;;;;;20.89;48.47;100299.66;5047124;28;20319;-93
2021/09/06 09:12:02;;;;;;;9.50;6.93;;;;;;;20.82;48.05;100307.28;5063745;28;20224;-91
2021/09/06 09:14:51;;;;;;;9.83;6.80;;;;;;;20.91;48.09;100289.31;5093076;28;20241;-92
2021/09/06 09:17:53;;;;;;;10.43;7.07;;;;;;;21.21;48.00;100293.16;5068544;28;20234;-91
2021/09/06 09:21:14;;;;;;;7.10;6.30;;;;;;;21.50;47.64;100294.22;4984695;28;20544;-91
2021/09/06 09:24:21;;;;;;;9.30;6.93;;;;;;;21.79;46.26;100287.03;5064794;28;20266;-89
2021/09/06 09:27:16;;;;;;;11.27;6.63;;;;;;;22.02;46.15;100288.38;5059185;28;20227;-90
2021/09/06 09:29:51;;;;;;;10.00;6.93;;;;;;;22.20;45.89;100286.94;5076104;28;20232;-90
2021/09/06 09:32:35;;;;;;;9.23;6.53;;;;;;;22.36;45.66;100286.56;5044088;28;20640;-91
2021/09/06 09:35:09;;;;;;;9.03;6.33;;;;;;;22.54;44.74;100287.00;5059693;28;20235;-89
2021/09/06 09:37:40;;;;;;;9.67;7.23;;;;;;;22.69;45.41;100290.47;5060494;28;20230;-86
2021/09/06 09:40:09;;;;;;;9.57;7.10;;;;;;;22.49;45.77;100279.66;5075750;28;20237;-88
2021/09/06 09:42:48;;;;;;;9.27;6.70;;;;;;;22.61;45.22;100276.59;5042929;28;20543;-90
2021/09/06 09:45:24;;;;;;;10.17;6.70;;;;;;;22.49;44.36;100296.03;5076009;28;20232;-88
2021/09/06 09:48:01;;;;;;;9.67;6.67;;;;;;;22.79;44.04;100281.41;5061117;28;20235;-91
2021/09/06 09:50:31;;;;;;;8.60;6.50;;;;;;;22.98;44.34;100287.00;5043112;28;20542;-91
2021/09/06 09:52:58;;;;;;;10.33;6.83;;;;;;;22.83;43.99;100287.94;5076536;28;20309;-90
2021/09/06 09:55:27;;;;;;;7.70;6.43;;;;;;;23.01;43.81;100295.44;5059736;28;20252;-91
2021/09/06 09:57:55;;;;;;;7.10;6.37;;;;;;;23.16;43.68;100278.13;5043714;28;20236;-89
2021/09/06 10:00:24;;;;;;;7.93;6.60;;;;;;;22.54;43.86;100281.53;5076612;28;20330;-87
2021/09/06 10:03:03;;;;;;;9.83;5.97;;;;;;;22.93;44.32;100282.41;5043980;28;20229;-87
2021/09/06 10:05:32;;;;;;;10.10;6.53;;;;;;;23.04;44.14;100274.94;5059638;28;20228;-91
2021/09/06 10:08:04;;;;;;;7.33;6.20;;;;;;;22.86;43.55;100275.66;5043465;28;20232;-84
2021/09/06 10:10:37;;;;;;;11.43;6.20;;;;;;;23.22;43.87;100269.59;5059397;28;20225;-91
2021/09/06 10:13:08;;;;;;;11.53;6.10;;;;;;;23.18;43.21;100270.47;5043311;28;20233;-86
2021/09/06 10:15:36;;;;;;;10.37;7.07;;;;;;;23.00;42.87;100274.72;5043772;28;20231;-92
2021/09/06 10:18:19;;;;;;;8.67;6.33;;;;;;;22.98;43.18;100271.44;5076292;28;20233;-92
2021/09/06 10:20:49;;;;;;;8.77;6.20;;;;;;;23.05;43.65;100262.94;5059893;28;20663;-85
2021/09/06 10:23:19;;;;;;;8.03;6.40;;;;;;;23.27;43.87;100272.28;5076714;28;20545;-85
2021/09/06 10:25:47;;;;;;;8.30;5.93;;;;;;;23.26;43.23;100267.91;5059652;28;20278;-92
2021/09/06 10:28:15;;;;;;;8.57;6.27;;;;;;;23.37;43.04;100254.97;5075256;28;20645;-86
2021/09/06 10:30:48;;;;;;;6.93;5.87;;;;;;;23.68;43.04;100258.22;5059610;28;20227;-88
2021/09/06 10:33:26;;;;;;;9.33;5.87;;;;;;;23.57;41.64;100253.94;5063734;28;20246;-83
2021/09/06 10:36:09;;;;;;;10.17;5.80;;;;;;;23.87;41.71;100261.00;5075981;28;20227;-91
2021/09/06 10:38:39;;;;;;;8.17;5.67;;;;;;;23.99;40.88;100245.78;5092361;28;20224;-91
2021/09/06 10:41:18;;;;;;;7.30;5.40;;;;;;;24.05;40.48;100246.53;5076004;28;20236;-88
2021/09/06 10:44:07;;;;;;;8.55;5.57;;;;;;;24.32;39.66;100245.94;5076081;28;20236;-84
2021/09/06 10:46:34;;;;;;;6.70;5.50;;;;;;;24.54;39.01;100246.16;5058850;28;20265;-86
2021/09/06 10:49:04;;;;;;;6.70;5.43;;;;;;;24.27;41.14;100249.53;5075676;28;20236;-88
2021/09/06 10:51:37;;;;;;;7.93;5.65;;;;;;;24.25;40.85;100246.31;5075014;28;20232;-85
2021/09/06 10:54:08;;;;;;;7.47;5.40;;;;;;;24.15;40.79;100246.41;5058584;28;20571;-86
2021/09/06 10:56:36;;;;;;;6.18;5.43;;;;;;;24.47;40.33;100241.06;5076116;28;20632;-92
2021/09/06 10:59:04;;;;;;;7.25;5.60;;;;;;;24.32;39.93;100244.00;5059254;28;20527;-92
2021/09/06 11:01:32;;;;;;;7.03;5.70;;;;;;;24.65;39.42;100233.13;5075280;28;20236;-91
2021/09/06 11:04:01;;;;;;;6.30;5.37;;;;;;;24.90;39.38;100238.22;5074830;28;20663;-83
2021/09/06 11:06:29;;;;;;;6.47;5.70;;;;;;;25.01;38.96;100228.69;5075278;28;20290;-91
2021/09/06 11:09:00;;;;;;;6.97;5.70;;;;;;;25.24;38.87;100227.72;5073962;28;20225;-92
2021/09/06 11:11:30;;;;;;;7.18;5.38;;;;;;;25.45;39.65;100236.41;5091730;28;20235;-91
2021/09/06 11:13:58;;;;;;;7.10;5.45;;;;;;;25.51;38.18;100243.44;5059013;28;20533;-92
2021/09/06 11:16:38;;;;;;;7.55;5.60;;;;;;;25.07;39.25;100232.16;5058154;28;20238;-91
2021/09/06 11:19:15;;;;;;;6.68;5.97;;;;;;;24.83;39.72;100232.25;5058582;28;20226;-85
2021/09/06 11:21:43;;;;;;;10.73;5.63;;;;;;;24.70;39.98;100228.38;5075449;28;20320;-88
2021/09/06 11:24:11;;;;;;;7.70;5.88;;;;;;;24.80;39.29;100227.41;5074464;28;20305;-91
2021/09/06 11:26:42;;;;;;;8.18;6.38;;;;;;;24.51;39.04;100233.06;5075001;28;20224;-89
2021/09/06 11:29:10;;;;;;;9.20;5.88;;;;;;;24.77;38.92;100203.34;5058210;28;20240;-86
2021/09/06 11:31:37;;;;;;;6.60;5.63;;;;;;;25.05;38.42;100234.41;5074872;28;20316;-92
2021/09/06 11:34:05;;;;;;;9.15;5.90;;;;;;;25.07;39.12;100232.16;5059561;28;20682;-91
2021/09/06 11:36:33;;;;;;;8.45;6.45;;;;;;;24.94;38.77;100217.31;5059337;28;20619;-92
2021/09/06 11:39:00;;;;;;;6.65;5.88;;;;;;;25.22;38.61;100215.47;5076279;28;20216;-88
2021/09/06 11:41:27;;;;;;;8.20;6.10;;;;;;;25.57;38.73;100211.28;5110879;28;20230;-85
2021/09/06 11:43:54;;;;;;;6.55;5.95;;;;;;;25.58;37.74;100208.19;5061197;28;20564;-90
2021/09/06 11:46:22;;;;;;;7.10;5.07;;;;;;;25.40;38.80;100212.63;5077462;28;20305;-91
2021/09/06 11:48:50;;;;;;;6.57;5.80;;;;;;;25.14;40.27;100208.75;5061279;28;20696;-91
2021/09/06 11:51:18;;;;;;;8.43;5.47;;;;;;;25.14;39.55;100211.50;5077488;28;20267;-86
2021/09/06 11:53:59;;;;;;;7.93;5.88;;;;;;;25.05;38.67;100207.00;5077608;28;20308;-92
2021/09/06 11:56:27;;;;;;;6.65;5.75;;;;;;;25.45;38.61;100198.00;5060437;28;20228;-91
2021/09/06 11:59:01;;;;;;;9.43;5.57;;;;;;;25.76;38.25;100203.72;5061080;28;20311;-92
2021/09/06 12:01:29;;;;;;;9.20;5.32;;;;;;;25.93;38.25;100214.91;5077414;28;20229;-87
2021/09/06 12:04:10;;;;;;;8.02;5.38;;;;;;;26.17;36.84;100211.91;5076992;28;20233;-91
2021/09/06 12:06:38;;;;;;;7.35;5.38;;;;;;;26.17;36.88;100220.97;5111365;28;20238;-93
2021/09/06 12:09:07;;;;;;;7.05;5.47;;;;;;;25.05;38.07;100210.56;5111125;28;20255;-92